Weather at Botucatu - Tancredo de Almeida Neves Airport

Public forecast

Using degrees Celsius for public forecast. Weather courtesy of forecast.io.

Closest aviation weather report (METAR) to Botucatu - Tancredo de Almeida Neves Airport

Report is more than 6 hours old.

Closest report is Bauru Airport, 48.2 nm (89.4 km) NW. Retrieved 2020/09/30 22:00 UTC (22 days ago):

SBBU 302200Z 00000KT CAVOK 36/12 Q1012

Closest aviation forecast (TAF) to Botucatu - Tancredo de Almeida Neves Airport

Closest forecast is Bauru Airport, 48.2 nm (89.4 km) NW. Retrieved 2020/10/23 06:27 UTC (1 hour ago):

TAF SBBU 230200Z 2306/2318 12015KT CAVOK TN19/2308Z TX31/2317Z TEMPO 2306/2311 13015G25KT BECMG 2313/2315 10010KT SCT030 RMK PGD